Time;durP1;ratioP1;P1;durP2;ratioP2;P2;SDS_P1;SDS_P2;PMS_P1;PMS_P2;Temp;Humidity;BMP_temperature;BMP_pressure;BME280_temperature;BME280_humidity;BME280_pressure;Samples;Min_cycle;Max_cycle;Signal;HPM_P1;HPM_P2
2023/01/17 00:01:58;;;;;;;1.60;1.30;;;;;;;2.10;100.00;95392.09;5035928;28;20208;-79
2023/01/17 00:09:57;;;;;;;1.73;1.47;;;;;;;1.78;100.00;95401.59;5034980;28;20304;-79
2023/01/17 00:12:26;;;;;;;1.57;1.47;;;;;;;1.73;100.00;95413.31;5035400;28;20215;-79
2023/01/17 00:14:54;;;;;;;2.87;1.33;;;;;;;1.68;100.00;95416.28;5035538;28;20320;-79
2023/01/17 00:17:20;;;;;;;1.40;1.20;;;;;;;1.61;100.00;95412.47;5034996;28;20272;-79
2023/01/17 01:34:31;;;;;;;2.40;1.30;;;;;;;2.31;100.00;95476.38;5033086;28;20299;-78
2023/01/17 01:36:57;;;;;;;1.57;1.17;;;;;;;2.25;100.00;95479.44;5033083;28;20620;-79
2023/01/17 01:39:24;;;;;;;1.30;1.20;;;;;;;2.22;100.00;95473.66;5032201;28;20232;-79
2023/01/17 01:41:50;;;;;;;2.63;1.40;;;;;;;2.11;100.00;95471.91;5032656;28;20211;-79
2023/01/17 01:44:42;;;;;;;1.67;1.20;;;;;;;2.03;100.00;95476.84;5032850;28;20222;-79
2023/01/17 01:47:13;;;;;;;1.70;1.33;;;;;;;2.01;100.00;95488.34;5033205;28;20209;-79
2023/01/17 01:49:40;;;;;;;2.23;1.80;;;;;;;2.01;100.00;95481.38;5032290;28;20569;-79
2023/01/17 01:52:08;;;;;;;2.30;1.33;;;;;;;2.05;100.00;95495.81;5032440;28;20713;-79
2023/01/17 01:54:39;;;;;;;2.67;1.60;;;;;;;2.12;100.00;95494.38;5033094;28;20212;-78
2023/01/17 01:57:09;;;;;;;2.27;1.60;;;;;;;2.13;100.00;95501.25;5032966;28;20213;-79
2023/01/17 01:59:40;;;;;;;1.60;1.30;;;;;;;2.20;100.00;95492.00;5031203;28;20243;-78
2023/01/17 02:02:07;;;;;;;1.60;1.40;;;;;;;2.20;100.00;95502.44;5032713;28;20210;-78
2023/01/17 02:04:36;;;;;;;2.47;1.40;;;;;;;2.18;100.00;95499.13;5032508;28;20213;-79
2023/01/17 02:07:07;;;;;;;1.40;1.20;;;;;;;2.25;100.00;95513.31;5032440;28;20204;-79
2023/01/17 02:09:34;;;;;;;2.23;1.37;;;;;;;2.24;100.00;95506.47;5031643;28;20281;-79
2023/01/17 02:12:02;;;;;;;2.20;1.30;;;;;;;2.22;100.00;95500.56;5032362;28;20208;-79
2023/01/17 02:14:28;;;;;;;1.50;1.33;;;;;;;2.22;100.00;95489.28;5032360;28;20216;-79
2023/01/17 02:17:05;;;;;;;1.47;1.37;;;;;;;2.22;100.00;95490.13;5032331;28;20209;-79
2023/01/17 02:20:00;;;;;;;1.50;1.40;;;;;;;2.20;100.00;95497.22;5030866;28;20239;-79
2023/01/17 02:22:57;;;;;;;2.73;1.50;;;;;;;2.20;100.00;95505.03;5032482;28;20624;-79
2023/01/17 02:25:47;;;;;;;2.07;1.60;;;;;;;2.26;100.00;95491.53;5031882;28;20236;-79
2023/01/17 02:28:34;;;;;;;2.83;1.30;;;;;;;2.29;100.00;95496.50;5032091;28;20228;-78
2023/01/17 02:31:06;;;;;;;1.80;1.57;;;;;;;2.34;100.00;95491.75;5031025;28;20213;-79
2023/01/17 02:33:40;;;;;;;2.57;1.23;;;;;;;2.40;100.00;95485.25;5031931;28;20311;-79
2023/01/17 02:36:14;;;;;;;2.57;1.40;;;;;;;2.40;100.00;95488.66;5032183;28;20189;-79
2023/01/17 02:38:51;;;;;;;1.30;1.20;;;;;;;2.38;100.00;95480.13;5031612;28;20233;-78
2023/01/17 02:41:21;;;;;;;1.30;1.20;;;;;;;2.38;100.00;95480.13;5031586;28;20644;-78
2023/01/17 02:43:50;;;;;;;3.37;1.50;;;;;;;2.42;100.00;95481.56;5031850;28;20212;-79
2023/01/17 02:46:18;;;;;;;1.50;1.40;;;;;;;2.45;100.00;95490.91;5031638;28;20640;-79
2023/01/17 02:48:45;;;;;;;1.40;1.30;;;;;;;2.42;100.00;95484.16;5031325;28;20573;-78
2023/01/17 02:51:35;;;;;;;2.67;1.43;;;;;;;2.47;100.00;95482.03;5031595;28;20209;-79
2023/01/17 02:54:16;;;;;;;1.63;1.30;;;;;;;2.41;100.00;95482.50;5031634;28;20237;-79
2023/01/17 02:56:51;;;;;;;2.30;1.30;;;;;;;2.40;100.00;95485.25;5031391;28;20215;-79
2023/01/17 02:59:33;;;;;;;2.20;1.30;;;;;;;2.40;100.00;95486.03;5030996;28;20604;-79
2023/01/17 03:02:12;;;;;;;1.70;1.60;;;;;;;2.38;100.00;95482.75;5031786;28;20600;-79
2023/01/17 03:04:44;;;;;;;1.60;1.50;;;;;;;2.37;100.00;95483.69;5031488;28;20209;-79
2023/01/17 03:07:15;;;;;;;2.30;1.43;;;;;;;2.45;100.00;95486.50;5031546;28;20662;-79
2023/01/17 03:09:44;;;;;;;1.90;1.50;;;;;;;2.45;100.00;95483.91;5030782;28;20237;-79
2023/01/17 03:12:12;;;;;;;2.90;1.70;;;;;;;2.49;100.00;95472.31;5031751;28;20216;-79
2023/01/17 03:14:38;;;;;;;2.03;1.43;;;;;;;2.45;100.00;95480.50;5031723;28;20213;-79
2023/01/17 03:17:07;;;;;;;2.37;1.60;;;;;;;2.44;100.00;95482.25;5031947;28;20212;-79
2023/01/17 03:19:33;;;;;;;1.30;1.20;;;;;;;2.40;100.00;95485.25;5030695;28;20686;-79
2023/01/17 03:22:00;;;;;;;2.00;1.50;;;;;;;2.41;100.00;95492.09;5031799;28;20218;-79
2023/01/17 03:24:26;;;;;;;2.00;1.70;;;;;;;2.40;100.00;95486.03;5031896;28;20213;-79
2023/01/17 03:26:53;;;;;;;3.33;1.90;;;;;;;2.41;100.00;95489.50;5031680;28;20208;-78
2023/01/17 03:29:19;;;;;;;2.60;1.40;;;;;;;2.49;100.00;95490.53;5030880;28;20716;-79
2023/01/17 03:31:46;;;;;;;2.63;1.53;;;;;;;2.46;100.00;95493.38;5034507;28;20218;-79
2023/01/17 03:34:14;;;;;;;1.53;1.27;;;;;;;2.53;100.00;95493.72;5036120;28;20208;-79
2023/01/17 03:36:40;;;;;;;2.03;1.70;;;;;;;2.59;100.00;95493.25;5035390;28;20210;-79
2023/01/17 03:39:07;;;;;;;2.83;1.43;;;;;;;2.54;100.00;95503.22;5034373;28;20726;-79
2023/01/17 03:41:33;;;;;;;2.07;1.13;;;;;;;2.58;100.00;95505.44;5035351;28;20218;-79
2023/01/17 03:44:00;;;;;;;1.60;1.23;;;;;;;2.56;100.00;95504.75;5035364;28;20217;-79
2023/01/17 03:46:28;;;;;;;1.73;1.30;;;;;;;2.54;100.00;95505.81;5035342;28;20676;-79
2023/01/17 03:48:55;;;;;;;1.57;1.20;;;;;;;2.56;100.00;95515.16;5033866;28;20271;-79
2023/01/17 03:51:23;;;;;;;1.77;1.20;;;;;;;2.63;100.00;95513.72;5035117;28;20215;-79
2023/01/17 03:53:50;;;;;;;1.77;1.20;;;;;;;2.70;100.00;95520.09;5035075;28;20223;-79
2023/01/17 03:56:17;;;;;;;3.27;1.37;;;;;;;2.55;100.00;95518.72;5034703;28;20215;-79
2023/01/17 03:58:44;;;;;;;1.40;1.10;;;;;;;2.41;100.00;95526.81;5034185;28;20717;-79
2023/01/17 04:01:11;;;;;;;2.03;1.00;;;;;;;2.34;100.00;95509.97;5034461;28;20205;-79
2023/01/17 04:03:37;;;;;;;1.90;1.27;;;;;;;2.24;100.00;95514.28;5035138;28;20210;-79
2023/01/17 04:06:04;;;;;;;0.93;0.90;;;;;;;2.27;100.00;95519.22;5035045;28;20213;-79
2023/01/17 04:08:32;;;;;;;1.60;1.10;;;;;;;2.20;100.00;95510.25;5034823;28;20259;-79
2023/01/17 04:10:59;;;;;;;1.10;1.07;;;;;;;2.20;100.00;95510.25;5034109;28;20207;-79
2023/01/17 04:13:25;;;;;;;1.57;1.13;;;;;;;2.15;100.00;95504.56;5035419;28;20206;-79
2023/01/17 04:15:52;;;;;;;1.87;1.20;;;;;;;2.05;100.00;95503.63;5034957;28;20212;-79
2023/01/17 04:18:20;;;;;;;2.60;1.27;;;;;;;2.00;100.00;95503.16;5035012;28;20604;-79
2023/01/17 04:20:46;;;;;;;1.40;1.30;;;;;;;1.95;100.00;95505.28;5033885;28;20256;-79
2023/01/17 04:23:13;;;;;;;1.40;1.10;;;;;;;1.87;100.00;95510.25;5034562;28;20568;-79
2023/01/17 04:25:41;;;;;;;1.50;1.30;;;;;;;1.82;100.00;95503.72;5034655;28;20209;-79
2023/01/17 04:28:07;;;;;;;1.50;1.30;;;;;;;1.73;100.00;95513.06;5034940;28;20321;-78
2023/01/17 04:30:34;;;;;;;2.20;1.30;;;;;;;1.63;100.00;95512.13;5084995;22;20246;-76
2023/01/17 04:33:01;;;;;;;1.57;1.40;;;;;;;1.46;100.00;95509.94;5073857;28;20211;-77
2023/01/17 04:35:29;;;;;;;2.33;1.30;;;;;;;1.34;100.00;95510.84;5073958;28;20213;-77
2023/01/17 04:37:56;;;;;;;1.37;1.27;;;;;;;1.25;100.00;95516.75;5073713;28;20214;-77
2023/01/17 04:40:22;;;;;;;1.90;1.40;;;;;;;1.26;100.00;95527.97;5072826;28;20235;-77
2023/01/17 04:42:50;;;;;;;2.80;1.10;;;;;;;1.20;100.00;95528.44;5073298;28;20211;-77
2023/01/17 04:45:17;;;;;;;2.33;1.40;;;;;;;1.17;100.00;95528.66;5073559;28;20204;-77
2023/01/17 04:47:43;;;;;;;2.77;1.57;;;;;;;1.18;100.00;95525.94;5073783;28;20594;-76
2023/01/17 04:50:13;;;;;;;1.87;1.57;;;;;;;1.25;100.00;95532.38;5072778;28;20321;-77
2023/01/17 04:52:39;;;;;;;1.50;1.23;;;;;;;1.31;100.00;95531.06;5073502;28;20214;-77
2023/01/17 04:55:07;;;;;;;1.90;1.70;;;;;;;1.34;100.00;95530.84;5073490;28;20204;-77
2023/01/17 04:57:33;;;;;;;2.30;1.40;;;;;;;1.42;100.00;95544.13;5073361;28;20231;-77
2023/01/17 05:00:01;;;;;;;1.30;1.10;;;;;;;1.50;100.00;95536.56;5072563;28;20231;-77
2023/01/17 05:02:28;;;;;;;1.97;1.20;;;;;;;1.56;100.00;95534.34;5073488;28;20585;-77
2023/01/17 05:04:54;;;;;;;1.30;1.20;;;;;;;1.65;100.00;95544.06;5073336;28;20575;-76
2023/01/17 05:07:21;;;;;;;3.07;1.50;;;;;;;1.63;100.00;95538.13;5073689;28;20692;-76
2023/01/17 05:09:47;;;;;;;1.87;1.47;;;;;;;1.64;100.00;95534.59;5072385;28;20257;-77
2023/01/17 05:12:13;;;;;;;1.57;1.40;;;;;;;1.57;100.00;95530.78;5073062;28;20212;-77
2023/01/17 05:14:40;;;;;;;1.53;1.23;;;;;;;1.42;100.00;95534.53;5073346;28;20210;-77
2023/01/17 05:17:09;;;;;;;1.30;1.20;;;;;;;1.30;100.00;95530.22;5073258;28;20495;-77
2023/01/17 05:19:36;;;;;;;1.60;1.30;;;;;;;1.19;100.00;95529.38;5072070;28;20234;-76
2023/01/17 05:22:13;;;;;;;2.90;1.63;;;;;;;1.06;100.00;95524.22;5072991;28;20204;-77
2023/01/17 05:24:40;;;;;;;1.60;1.50;;;;;;;0.95;100.00;95518.16;5072851;28;20211;-77
2023/01/17 05:27:07;;;;;;;1.40;1.30;;;;;;;0.89;100.00;95514.25;5072797;28;20681;-76
2023/01/17 05:29:33;;;;;;;2.00;1.80;;;;;;;0.97;100.00;95527.50;5071988;28;20715;-77
2023/01/17 05:32:00;;;;;;;1.83;1.50;;;;;;;0.89;100.00;95524.66;5072695;28;20214;-77
2023/01/17 05:34:27;;;;;;;1.70;1.50;;;;;;;0.82;100.00;95523.44;5072556;28;20680;-77
2023/01/17 05:36:54;;;;;;;1.90;1.70;;;;;;;0.71;100.00;95507.78;5072626;28;20237;-77
2023/01/17 05:39:21;;;;;;;1.63;1.40;;;;;;;0.64;100.00;95513.53;5071691;28;20364;-76
2023/01/17 05:41:47;;;;;;;2.07;1.53;;;;;;;0.53;100.00;95509.09;5072475;28;20216;-76
2023/01/17 05:44:14;;;;;;;1.70;1.60;;;;;;;0.45;100.00;95514.00;5072490;28;20688;-76
2023/01/17 05:46:41;;;;;;;2.53;1.60;;;;;;;0.37;100.00;95516.31;5072474;28;20264;-76
2023/01/17 05:49:07;;;;;;;1.40;1.30;;;;;;;0.29;100.00;95515.19;5071719;28;20520;-76
2023/01/17 05:51:36;;;;;;;1.77;1.30;;;;;;;0.22;100.00;95514.81;5072969;28;20212;-78
2023/01/17 05:54:03;;;;;;;1.83;1.30;;;;;;;0.16;100.00;95512.66;5071927;28;20207;-77
2023/01/17 05:56:29;;;;;;;2.00;1.50;;;;;;;0.16;100.00;95515.25;5072669;28;20214;-77
2023/01/17 05:58:56;;;;;;;3.33;1.70;;;;;;;0.12;100.00;95506.00;5071980;28;20227;-76
2023/01/17 06:01:22;;;;;;;2.30;1.60;;;;;;;0.08;100.00;95504.53;5072027;28;20738;-76
2023/01/17 06:03:49;;;;;;;1.33;1.23;;;;;;;0.04;100.00;95500.53;5072127;28;20594;-78
2023/01/17 06:06:15;;;;;;;2.80;1.57;;;;;;;0.01;100.00;95497.31;5071959;28;20307;-75
2023/01/17 06:08:43;;;;;;;4.00;1.97;;;;;;;0.01;100.00;95502.50;5071817;28;20229;-76
2023/01/17 06:11:09;;;;;;;2.97;1.70;;;;;;;0.01;100.00;95485.16;5071774;28;20242;-78
2023/01/17 06:13:36;;;;;;;2.40;1.40;;;;;;;0.06;100.00;95485.66;5072036;28;20222;-76
2023/01/17 06:16:03;;;;;;;1.87;1.50;;;;;;;0.04;100.00;95484.94;5071929;28;20212;-78
2023/01/17 06:18:31;;;;;;;2.73;1.60;;;;;;;0.04;100.00;95482.34;5071749;28;20238;-78
2023/01/17 06:20:57;;;;;;;1.73;1.40;;;;;;;0.00;100.00;95470.50;5070915;28;20331;-77
2023/01/17 06:23:24;;;;;;;2.33;1.70;;;;;;;-0.01;100.00;95463.66;5071645;28;20208;-76
2023/01/17 06:25:52;;;;;;;2.63;1.90;;;;;;;0.02;100.00;95462.63;5071644;28;20681;-76
2023/01/17 06:28:20;;;;;;;2.53;1.60;;;;;;;-0.04;100.00;95457.88;5071679;28;20215;-76
2023/01/17 06:30:47;;;;;;;3.03;1.87;;;;;;;-0.10;100.00;95461.69;5070872;28;20206;-76
2023/01/17 06:33:14;;;;;;;3.40;1.77;;;;;;;-0.19;100.00;95458.09;5071403;28;20207;-76
2023/01/17 06:35:47;;;;;;;2.43;1.40;;;;;;;-0.26;100.00;95457.69;5071655;28;20221;-76
2023/01/17 06:38:13;;;;;;;2.40;1.50;;;;;;;-0.34;100.00;95459.16;5071616;28;20216;-76
2023/01/17 06:40:40;;;;;;;2.10;1.30;;;;;;;-0.35;100.00;95447.13;5071057;28;20235;-76
2023/01/17 06:43:08;;;;;;;2.87;1.53;;;;;;;-0.36;100.00;95455.84;5071455;28;20211;-77
2023/01/17 06:45:35;;;;;;;1.63;1.30;;;;;;;-0.40;100.00;95454.38;5071390;28;20222;-76
2023/01/17 06:48:03;;;;;;;2.03;1.43;;;;;;;-0.48;100.00;95451.50;5071155;28;20204;-76
2023/01/17 06:50:31;;;;;;;2.80;1.43;;;;;;;-0.52;100.00;95463.00;5070592;28;20223;-76
2023/01/17 06:53:00;;;;;;;2.27;1.70;;;;;;;-0.62;100.00;95472.34;5071330;28;20610;-76
2023/01/17 06:55:27;;;;;;;1.80;1.50;;;;;;;-0.62;100.00;95475.75;5071416;28;20208;-76
2023/01/17 06:57:54;;;;;;;1.63;1.50;;;;;;;-0.62;100.00;95475.75;5071349;28;20257;-76
2023/01/17 07:00:22;;;;;;;3.33;1.77;;;;;;;-0.52;100.00;95476.81;5070161;28;20227;-76
2023/01/17 07:02:49;;;;;;;2.20;1.77;;;;;;;-0.54;100.00;95468.31;5071165;28;20207;-76
2023/01/17 07:05:16;;;;;;;2.23;1.73;;;;;;;-0.53;100.00;95469.97;5071177;28;20216;-76
2023/01/17 07:07:43;;;;;;;2.80;1.90;;;;;;;-0.56;100.00;95464.97;5071179;28;20215;-76
2023/01/17 07:10:10;;;;;;;3.93;1.90;;;;;;;-0.51;100.00;95462.91;5070224;28;20230;-77
2023/01/17 07:12:37;;;;;;;3.80;2.10;;;;;;;-0.46;100.00;95460.00;5071047;28;20225;-77
2023/01/17 07:15:04;;;;;;;3.97;1.90;;;;;;;-0.44;100.00;95460.72;5071000;28;20227;-76
2023/01/17 07:17:33;;;;;;;6.07;2.43;;;;;;;-0.48;100.00;95452.34;5071008;28;20674;-77
2023/01/17 07:20:00;;;;;;;3.97;2.00;;;;;;;-0.53;100.00;95448.38;5070040;28;20688;-76
2023/01/17 07:22:26;;;;;;;3.03;2.10;;;;;;;-0.51;100.00;95447.34;5071134;28;20207;-77
2023/01/17 07:24:57;;;;;;;5.17;2.37;;;;;;;-0.51;100.00;95447.34;5071046;28;20619;-77
2023/01/17 07:27:23;;;;;;;3.57;1.87;;;;;;;-0.58;100.00;95445.25;5071082;28;20213;-77
2023/01/17 07:29:50;;;;;;;2.23;2.00;;;;;;;-0.56;100.00;95440.81;5069972;28;20236;-75
2023/01/17 07:32:17;;;;;;;3.77;2.57;;;;;;;-0.50;100.00;95449.00;5071074;28;20398;-77
2023/01/17 07:34:45;;;;;;;2.87;2.00;;;;;;;-0.44;100.00;95447.75;5070996;28;20595;-77
2023/01/17 07:37:11;;;;;;;2.20;1.90;;;;;;;-0.45;100.00;95441.72;5070913;28;20646;-77
2023/01/17 07:39:37;;;;;;;4.93;2.30;;;;;;;-0.38;100.00;95439.56;5070147;28;20231;-78
2023/01/17 07:42:04;;;;;;;2.63;2.13;;;;;;;-0.31;100.00;95433.00;5070670;28;20228;-76
2023/01/17 07:44:30;;;;;;;4.47;2.07;;;;;;;-0.33;100.00;95429.69;5071200;28;20204;-77
2023/01/17 07:46:57;;;;;;;3.67;2.20;;;;;;;-0.34;100.00;95428.00;5071173;28;20223;-77
2023/01/17 07:49:23;;;;;;;3.67;2.03;;;;;;;-0.37;100.00;95428.25;5070172;28;20227;-77
2023/01/17 07:51:52;;;;;;;3.60;2.43;;;;;;;-0.39;100.00;95424.94;5070840;28;20203;-77
2023/01/17 07:54:19;;;;;;;3.70;2.27;;;;;;;-0.36;100.00;95425.56;5070748;28;20209;-76
2023/01/17 07:56:46;;;;;;;3.57;2.37;;;;;;;-0.38;100.00;95421.41;5068792;28;20587;-76
2023/01/17 07:59:12;;;;;;;3.13;2.27;;;;;;;-0.42;100.00;95425.13;5067721;28;20263;-79
2023/01/17 08:01:39;;;;;;;4.23;2.90;;;;;;;-0.41;100.00;95427.63;5069553;28;20240;-76
2023/01/17 08:04:05;;;;;;;3.43;2.33;;;;;;;-0.35;100.00;95427.19;5069479;28;20208;-78
2023/01/17 08:06:32;;;;;;;3.50;2.33;;;;;;;-0.37;100.00;95423.06;5070942;28;20670;-78
2023/01/17 08:09:00;;;;;;;4.30;2.70;;;;;;;-0.29;100.00;95426.78;5069777;28;20240;-78
2023/01/17 08:11:26;;;;;;;5.70;3.15;;;;;;;-0.20;100.00;95426.13;5069882;28;20967;-78
2023/01/17 08:13:56;;;;;;;6.37;3.10;;;;;;;-0.18;100.00;95426.88;5070784;28;20208;-78
2023/01/17 08:16:23;;;;;;;4.63;2.73;;;;;;;-0.20;100.00;95420.13;5070997;28;20344;-78
2023/01/17 08:18:49;;;;;;;4.73;3.10;;;;;;;-0.17;100.00;95420.72;5073612;28;20233;-77
2023/01/17 08:21:17;;;;;;;4.03;2.97;;;;;;;-0.12;100.00;95424.66;5073853;28;20254;-76
2023/01/17 08:23:46;;;;;;;4.23;2.70;;;;;;;-0.07;100.00;95427.75;5074016;28;20212;-78
2023/01/17 08:26:20;;;;;;;5.33;3.17;;;;;;;-0.04;100.00;95421.53;5074254;28;20203;-78
2023/01/17 08:28:46;;;;;;;3.57;2.70;;;;;;;0.00;100.00;95417.78;5073340;28;20242;-78
2023/01/17 08:31:13;;;;;;;4.40;3.20;;;;;;;0.12;100.00;95417.72;5073839;28;20219;-79
2023/01/17 08:33:39;;;;;;;6.53;3.50;;;;;;;0.24;100.00;95427.22;5073777;28;20215;-78
2023/01/17 08:36:06;;;;;;;5.70;3.50;;;;;;;0.41;100.00;95424.25;5073803;28;20233;-76
2023/01/17 08:38:32;;;;;;;6.73;3.60;;;;;;;0.52;100.00;95426.91;5073626;28;20232;-78
2023/01/17 08:41:00;;;;;;;5.03;3.60;;;;;;;0.64;100.00;95428.63;5073083;28;20254;-79
2023/01/17 08:43:28;;;;;;;5.73;3.50;;;;;;;0.73;100.00;95427.94;5073880;28;20211;-78
2023/01/17 08:45:54;;;;;;;4.13;3.30;;;;;;;0.78;100.00;95422.38;5073704;28;20578;-79
2023/01/17 08:48:21;;;;;;;5.03;3.70;;;;;;;0.84;100.00;95427.13;5073606;28;20207;-77
2023/01/17 08:50:48;;;;;;;6.87;4.17;;;;;;;0.88;100.00;95423.38;5072881;28;20200;-79
2023/01/17 08:53:15;;;;;;;6.30;3.93;;;;;;;0.92;100.00;95428.22;5073785;28;20288;-79
2023/01/17 08:55:41;;;;;;;6.70;3.97;;;;;;;1.02;100.00;95420.56;5073780;28;20588;-79
2023/01/17 08:58:08;;;;;;;7.33;5.00;;;;;;;1.09;100.00;95422.59;5072538;28;20514;-79
2023/01/17 09:00:36;;;;;;;7.73;4.50;;;;;;;1.13;100.00;95420.59;5072560;28;20237;-78
2023/01/17 09:03:02;;;;;;;7.13;4.07;;;;;;;1.26;100.00;95409.16;5073521;28;20235;-78
2023/01/17 09:05:29;;;;;;;7.90;4.67;;;;;;;1.38;100.00;95415.19;5073275;28;20215;-78
2023/01/17 09:07:56;;;;;;;7.90;4.13;;;;;;;1.58;100.00;95417.09;5073508;28;20247;-78
2023/01/17 09:10:23;;;;;;;5.47;3.53;;;;;;;1.77;100.00;95412.97;5072405;28;20223;-76
2023/01/17 09:12:49;;;;;;;6.33;3.80;;;;;;;1.97;100.00;95417.44;5073369;28;20324;-79
2023/01/17 09:15:19;;;;;;;4.43;3.27;;;;;;;2.08;100.00;95403.59;5073255;28;20212;-78
2023/01/17 09:17:47;;;;;;;5.33;3.30;;;;;;;2.18;100.00;95405.34;5073121;28;20208;-77
2023/01/17 09:20:13;;;;;;;6.80;2.90;;;;;;;2.33;100.00;95406.72;5072478;28;20285;-77
2023/01/17 09:22:40;;;;;;;3.87;2.73;;;;;;;2.37;100.00;95402.91;5073196;28;20236;-77
2023/01/17 09:25:07;;;;;;;4.20;2.50;;;;;;;2.41;100.00;95396.53;5072981;28;20722;-78
2023/01/17 09:27:34;;;;;;;4.43;3.10;;;;;;;2.44;100.00;95393.66;5072419;28;20211;-79
2023/01/17 09:30:00;;;;;;;4.53;3.47;;;;;;;2.46;100.00;95396.94;5071314;28;20239;-78
2023/01/17 09:32:27;;;;;;;3.13;2.80;;;;;;;2.53;100.00;95390.31;5072788;28;20204;-78
2023/01/17 09:34:56;;;;;;;4.80;3.33;;;;;;;2.55;100.00;95385.78;5072957;28;20216;-78
2023/01/17 09:37:23;;;;;;;6.13;3.27;;;;;;;2.57;100.00;95380.47;5072858;28;20208;-77
2023/01/17 09:39:49;;;;;;;5.60;3.63;;;;;;;2.49;100.00;95383.69;5071974;28;20229;-77
2023/01/17 09:42:27;;;;;;;4.63;3.27;;;;;;;2.39;100.00;95376.75;5072634;28;20234;-77
2023/01/17 09:44:55;;;;;;;4.20;2.50;;;;;;;2.36;100.00;95377.81;5072522;28;20214;-77
2023/01/17 09:47:32;;;;;;;3.90;2.80;;;;;;;2.32;100.00;95371.19;5072417;28;20220;-77
2023/01/17 09:50:15;;;;;;;3.73;2.47;;;;;;;2.31;100.00;95369.53;5071910;28;20242;-76
2023/01/17 09:52:42;;;;;;;4.60;2.33;;;;;;;2.35;100.00;95370.94;5072541;28;20581;-77
2023/01/17 09:55:14;;;;;;;3.20;2.13;;;;;;;2.36;100.00;95359.56;5072210;28;20203;-76
2023/01/17 09:57:47;;;;;;;4.27;2.13;;;;;;;2.43;100.00;95357.28;5072189;28;20212;-76
2023/01/17 10:00:31;;;;;;;4.37;2.00;;;;;;;2.37;100.00;95356.00;5071516;28;20227;-77
2023/01/17 10:03:21;;;;;;;2.37;1.63;;;;;;;2.49;100.00;95336.78;5072056;28;20202;-77
2023/01/17 10:06:14;;;;;;;2.43;1.87;;;;;;;2.55;100.00;95338.03;5072014;28;20584;-77
2023/01/17 10:09:02;;;;;;;3.37;1.60;;;;;;;2.63;98.92;95328.63;5072058;28;20235;-78
2023/01/17 10:11:53;;;;;;;3.70;2.10;;;;;;;2.62;98.11;95324.38;5071992;28;20256;-78
2023/01/17 10:14:46;;;;;;;4.67;2.43;;;;;;;2.71;100.00;95339.28;5071894;28;20205;-78
2023/01/17 10:17:25;;;;;;;5.73;2.37;;;;;;;2.76;99.90;95339.72;5072168;28;20217;-78
2023/01/17 10:20:10;;;;;;;4.90;2.30;;;;;;;2.85;100.00;95332.91;5071194;28;20228;-78
2023/01/17 10:22:55;;;;;;;2.10;1.90;;;;;;;2.98;96.69;95303.06;5071683;28;20238;-77
2023/01/17 10:25:47;;;;;;;2.57;1.97;;;;;;;3.10;95.51;95333.34;5071958;28;20219;-78
2023/01/17 10:28:16;;;;;;;3.77;1.80;;;;;;;3.29;94.45;95327.38;5052247;28;20211;-77
2023/01/17 10:30:48;;;;;;;2.83;1.20;;;;;;;3.37;91.01;95315.34;5085992;22;20805;-80
2023/01/17 10:33:18;;;;;;;4.10;1.60;;;;;;;3.48;91.59;95323.09;5072144;28;20212;-81
2023/01/17 10:35:53;;;;;;;2.77;1.20;;;;;;;3.57;93.35;95331.91;5072854;28;20207;-80
2023/01/17 10:38:27;;;;;;;2.10;1.50;;;;;;;3.61;92.54;95321.06;5072533;28;20216;-79
2023/01/17 10:40:59;;;;;;;2.87;1.27;;;;;;;3.65;92.30;95319.84;5070740;28;20228;-81
2023/01/17 10:43:30;;;;;;;2.60;1.47;;;;;;;3.75;93.45;95323.34;5072221;28;20220;-79
2023/01/17 10:45:57;;;;;;;5.17;2.47;;;;;;;3.68;91.55;95319.56;5072097;28;20213;-79
2023/01/17 10:48:36;;;;;;;3.07;1.63;;;;;;;3.67;88.86;95302.25;5071948;28;20204;-81
2023/01/17 10:51:12;;;;;;;3.57;2.07;;;;;;;3.67;88.13;95296.22;5071634;28;20245;-80
2023/01/17 10:53:50;;;;;;;4.73;2.37;;;;;;;3.75;88.88;95299.84;5072027;28;20212;-79
2023/01/17 10:56:20;;;;;;;1.93;1.30;;;;;;;3.87;88.19;95293.53;5072167;28;20213;-80
2023/01/17 10:58:49;;;;;;;1.97;1.40;;;;;;;3.83;85.62;95292.16;5071712;28;20698;-80
2023/01/17 11:01:19;;;;;;;3.03;1.40;;;;;;;3.90;83.88;95282.81;5073195;28;20236;-79
2023/01/17 11:03:50;;;;;;;1.93;1.40;;;;;;;3.96;83.09;95274.44;5084849;28;20205;-80
2023/01/17 11:06:21;;;;;;;2.47;1.40;;;;;;;4.09;81.07;95272.38;5086532;28;20256;-79
2023/01/17 11:08:55;;;;;;;3.53;1.73;;;;;;;4.08;79.69;95275.94;5083294;28;20231;-79
2023/01/17 11:11:24;;;;;;;1.90;1.00;;;;;;;4.05;81.11;95265.78;5086034;28;20212;-81
2023/01/17 11:13:54;;;;;;;1.63;1.10;;;;;;;4.23;82.38;95276.38;5085831;28;20210;-79
2023/01/17 11:16:23;;;;;;;2.00;1.23;;;;;;;4.28;79.30;95261.94;5087930;28;20205;-80
2023/01/17 11:19:07;;;;;;;1.17;1.00;;;;;;;4.26;77.85;95258.63;5088548;28;20272;-81
2023/01/17 11:21:36;;;;;;;1.17;1.03;;;;;;;4.32;78.59;95268.53;5073378;28;20266;-79
2023/01/17 11:24:15;;;;;;;0.80;0.80;;;;;;;4.23;76.63;95256.28;5071368;28;20218;-81
2023/01/17 11:26:48;;;;;;;1.27;0.80;;;;;;;4.10;79.94;95263.56;5071729;28;20193;-79
2023/01/17 11:29:23;;;;;;;1.10;0.80;;;;;;;4.07;78.69;95256.00;5070791;28;20636;-81
2023/01/17 11:31:49;;;;;;;0.80;0.80;;;;;;;3.97;79.42;95242.09;5072064;28;20209;-79
2023/01/17 11:34:18;;;;;;;1.90;0.90;;;;;;;3.90;79.88;95235.78;5071573;28;20217;-79
2023/01/17 11:36:45;;;;;;;1.83;1.10;;;;;;;3.69;79.11;95222.03;5071682;28;20589;-80
2023/01/17 11:39:27;;;;;;;3.03;1.00;;;;;;;3.58;77.91;95213.47;5070595;28;20239;-79
2023/01/17 11:41:53;;;;;;;1.47;0.93;;;;;;;3.53;77.75;95213.88;5071132;28;20241;-79
2023/01/17 11:44:23;;;;;;;1.03;0.80;;;;;;;3.50;78.50;95221.16;5071318;28;20218;-79
2023/01/17 11:47:08;;;;;;;1.97;0.70;;;;;;;3.63;75.55;95204.28;5071459;28;20210;-79
2023/01/17 11:49:35;;;;;;;0.70;0.70;;;;;;;3.86;76.50;95220.53;5070810;28;20291;-79
2023/01/17 11:52:08;;;;;;;1.27;0.90;;;;;;;4.26;74.59;95210.75;5072735;28;20206;-79
2023/01/17 11:54:39;;;;;;;1.00;0.70;;;;;;;4.49;73.04;95197.25;5075444;28;20206;-79
2023/01/17 11:57:16;;;;;;;0.73;0.70;;;;;;;4.64;69.92;95167.06;5075065;28;20257;-80
2023/01/17 11:59:44;;;;;;;0.60;0.60;;;;;;;4.74;68.10;95159.19;5074364;28;20574;-80
2023/01/17 12:02:35;;;;;;;0.60;0.60;;;;;;;4.85;67.91;95146.78;5075292;28;20233;-80
2023/01/17 12:05:17;;;;;;;1.10;0.80;;;;;;;4.88;66.55;95129.97;5075058;28;20210;-80
2023/01/17 12:07:53;;;;;;;1.00;0.80;;;;;;;4.81;67.82;95134.94;5074860;28;20217;-80
2023/01/17 12:10:27;;;;;;;1.10;0.70;;;;;;;4.78;66.94;95123.94;5073648;28;20227;-80
2023/01/17 12:18:57;;;;;;;0.80;0.80;;;;;;;4.84;68.87;95142.47;5074290;28;20223;-80
2023/01/17 12:21:35;;;;;;;1.33;0.80;;;;;;;4.73;65.92;95113.91;5074774;28;20203;-80
2023/01/17 12:24:31;;;;;;;1.60;1.13;;;;;;;4.70;66.23;95095.88;5075016;28;20214;-80
2023/01/17 12:27:09;;;;;;;1.63;0.80;;;;;;;4.74;66.19;95102.47;5074184;28;20211;-80
2023/01/17 12:29:48;;;;;;;1.13;0.77;;;;;;;4.75;66.89;95104.13;5073376;28;20264;-80
2023/01/17 12:32:31;;;;;;;1.90;0.60;;;;;;;4.77;66.57;95096.94;5074266;28;20209;-80
2023/01/17 12:35:03;;;;;;;0.67;0.67;;;;;;;4.87;69.02;95102.13;5074111;28;20234;-80
2023/01/17 12:37:35;;;;;;;0.70;0.70;;;;;;;4.92;69.79;95105.97;5074014;28;20213;-80
2023/01/17 12:40:06;;;;;;;0.83;0.60;;;;;;;4.89;65.92;95074.84;5072926;28;20237;-80
2023/01/17 12:42:40;;;;;;;0.60;0.50;;;;;;;4.95;67.51;95089.97;5074117;28;20230;-80
2023/01/17 12:45:13;;;;;;;0.70;0.70;;;;;;;4.95;66.77;95076.09;5074013;28;20207;-80
2023/01/17 12:47:43;;;;;;;0.63;0.53;;;;;;;5.00;70.20;95097.41;5073889;28;20699;-80
2023/01/17 12:50:21;;;;;;;1.90;0.60;;;;;;;4.96;65.39;95060.22;5072935;28;20234;-80
2023/01/17 12:52:58;;;;;;;0.90;0.70;;;;;;;4.96;64.90;95054.19;5073975;28;20205;-80
2023/01/17 12:55:35;;;;;;;1.03;0.90;;;;;;;5.02;67.05;95066.66;5073770;28;20208;-80
2023/01/17 12:58:10;;;;;;;1.90;0.83;;;;;;;5.02;67.89;95066.66;5073759;28;20232;-80
2023/01/17 13:00:39;;;;;;;1.73;1.03;;;;;;;5.00;68.39;95072.03;5072774;28;20234;-80
2023/01/17 13:03:15;;;;;;;1.50;0.67;;;;;;;4.97;66.26;95050.59;5073285;28;20298;-80
2023/01/17 13:05:46;;;;;;;1.07;0.90;;;;;;;4.95;66.61;95045.50;5073791;28;20209;-80
2023/01/17 13:08:26;;;;;;;1.40;0.70;;;;;;;4.96;68.11;95047.13;5073597;28;20214;-80
2023/01/17 13:10:57;;;;;;;1.13;0.80;;;;;;;4.98;67.54;95045.22;5072659;28;20257;-80
2023/01/17 13:13:27;;;;;;;2.60;0.80;;;;;;;4.99;68.51;95048.63;5073317;28;20675;-80
2023/01/17 13:15:57;;;;;;;1.57;0.80;;;;;;;4.98;67.81;95047.00;5073543;28;20221;-80